• Join FlightAware (Why Join?)
  • Login
  • US Flag 
11:19AM EST


 

Airport Tracker/Info


-or-


 

Live Flight TrackerFlight Track Log ✈ UAL252 ✈ 28-Apr-2013 ✈ KSNA - KDEN

Flight Track Log - Related Links

Times and Time Zones

All times are in EDT time to prevent confusion due to time zone crossing. See the UAL252 flight status page for this flight to view local times or setup timezone preferences in your user account.

Time Position Orientation Groundspeed Altitude Reporting Facility
EDT Latitude Longitude Course Direction KTS MPH feet Rate Location/Type
07:04PM 33.6394 -117.8869 90° East 141 162 2,000  Level Los Angeles Center
07:05PM 33.5997 -117.8939 188° South 142 163 3,400 1,200 Climbing Los Angeles Center
07:06PM 33.4776 -117.6652 54° Northeast  Level FlightAware Approximate
07:06PM 33.5411 -117.8786 168° South 230 265 4,500  Level Los Angeles Center
07:07PM 33.5364 -117.5474 66° East  Level FlightAware Approximate
07:07PM 33.4917 -117.8147 133° Southeast 277 319 8,000  Level Los Angeles Center
07:08PM 33.5820 -117.4207 68° East  Level FlightAware Approximate
07:08PM 33.4817 -117.7056 96° East 293 337 11,200  Level Los Angeles Center
07:09PM 33.5833 -117.2830 90° East  Level FlightAware Approximate
07:09PM 33.5256 -117.6047 62° Northeast 336 387 13,000  Level Los Angeles Center
07:10PM 33.5742 -117.4994 61° Northeast 359 413 15,600 2,280 Climbing Los Angeles Center
07:11PM 33.5825 -117.3717 85° East 392 451 17,800 1,740 Climbing Los Angeles Center
07:12PM 33.5894 -117.2386 86° East 400 460 19,200 1,380 Climbing Los Angeles Center
07:13PM 33.5953 -117.0739 88° East 412 474 20,700 1,380 Climbing Los Angeles Center
07:14PM 33.6008 -116.9339 87° East 421 484 22,100 1,140 Climbing Los Angeles Center
07:15PM 33.6064 -116.7819 87° East 428 493 23,100 900 Climbing Los Angeles Center
07:16PM 33.6117 -116.6369 87° East 432 497 24,000 360 Climbing Los Angeles Center
07:17PM 33.6319 -116.4944 80° East 438 504 23,900  Descending Los Angeles Center
07:18PM 33.6758 -116.3572 69° East 439 505 24,000 120 Climbing Los Angeles Center
07:19PM 33.7172 -116.2208 70° East 433 498 24,200 540 Climbing Los Angeles Center
07:20PM 33.7603 -116.0856 69° East 433 498 25,200 1,200 Climbing Los Angeles Center
07:21PM 33.8039 -115.9467 69° East 441 507 26,700 1,380 Climbing Los Angeles Center
07:22PM 33.8600 -115.7772 68° East 452 520 28,100 1,260 Climbing Los Angeles Center
07:23PM 33.9228 -115.6433 61° Northeast 462 532 29,400 1,320 Climbing Los Angeles Center
07:24PM 34.0072 -115.5283 48° Northeast 459 528 30,900 1,200 Climbing Los Angeles Center
07:25PM 34.0908 -115.4133 49° Northeast 456 525 32,000 1,200 Climbing Los Angeles Center
07:26PM 34.1733 -115.3017 48° Northeast 449 517 33,400 1,440 Climbing Los Angeles Center
07:27PM 34.2542 -115.1892 49° Northeast 444 511 35,000 1,200 Climbing Los Angeles Center
07:29PM 34.3506 -115.0561 49° Northeast 439 505 36,000 900 Climbing Los Angeles Center
07:30PM 34.4317 -114.9428 49° Northeast 444 511 36,900 480 Climbing Los Angeles Center
07:31PM 34.5131 -114.8294 49° Northeast 446 513 37,000  Climbing Los Angeles Center
07:32PM 34.5950 -114.7158 49° Northeast 446 513 37,000  Level Los Angeles Center
07:33PM 34.6842 -114.5903 49° Northeast 448 516 37,000  Level Los Angeles Center
07:34PM 34.7653 -114.4742 50° Northeast 451 519 37,000  Level Los Angeles Center
07:35PM 34.8572 -114.3747 42° Northeast 443 510 37,000  Level Los Angeles Center
07:36PM 34.9506 -114.2731 42° Northeast 449 517 37,000  Level Los Angeles Center
07:37PM 35.0400 -114.1258 53° Northeast 450 518 37,000  Level Los Angeles Center
07:38PM 35.1125 -114.0006 55° Northeast 451 519 37,000  Level Los Angeles Center
07:39PM 35.1869 -113.8703 55° Northeast 453 521 37,000  Level Los Angeles Center
07:40PM 35.2600 -113.7442 55° Northeast 455 524 37,000  Level Los Angeles Center
07:41PM 35.3311 -113.6192 55° Northeast 451 519 37,000  Level Los Angeles Center
07:42PM 35.4017 -113.4942 55° Northeast 448 516 37,000  Level Los Angeles Center
07:43PM 35.4722 -113.3686 55° Northeast 448 516 37,000  Level Los Angeles Center
07:44PM 35.5531 -113.2222 56° Northeast 445 512 37,000  Level Los Angeles Center
07:45PM 35.6239 -113.0969 55° Northeast 445 512 37,000  Level Los Angeles Center
07:46PM 35.6983 -112.9633 56° Northeast 447 514 37,000  Level Los Angeles Center
07:47PM 35.7678 -112.8369 56° Northeast 446 513 37,000  Level Los Angeles Center
07:48PM 35.8372 -112.7106 56° Northeast 445 512 37,000  Level Los Angeles Center
07:49PM 35.9072 -112.5839 56° Northeast 447 514 37,000  Level Los Angeles Center
07:50PM 35.9869 -112.4361 56° Northeast 444 511 37,000  Level Los Angeles Center
07:51PM 36.0550 -112.3117 56° Northeast 440 506 37,000  Level Los Angeles Center
07:52PM 36.1256 -112.1814 56° Northeast 444 511 37,000  Level Los Angeles Center
07:53PM 36.1933 -112.0572 56° Northeast 440 506 37,000  Level Los Angeles Center
07:54PM 36.2594 -111.9364 56° Northeast 439 505 37,000  Level Los Angeles Center
07:55PM 36.2986 -111.8617 57° Northeast 439 505 37,000  Level Denver Center
07:56PM 36.3664 -111.7364 56° Northeast 439 505 37,000  Level Denver Center
07:57PM 36.4350 -111.6081 56° Northeast 444 511 37,100  Climbing Denver Center
07:58PM 36.5028 -111.4797 57° Northeast 447 514 37,000 -60 Descending Denver Center
07:59PM 36.5836 -111.3275 56° Northeast 444 511 37,000  Level Denver Center
08:00PM 36.6511 -111.1989 57° Northeast 444 511 37,000  Level Denver Center
08:01PM 36.7194 -111.0708 56° Northeast 445 512 37,000  Level Denver Center
08:02PM 36.7858 -110.9433 57° Northeast 443 510 37,000  Level Denver Center
08:03PM 36.8525 -110.8156 57° Northeast 441 507 37,000  Level Denver Center
08:04PM 36.9200 -110.6869 57° Northeast 444 511 37,000  Level Denver Center
08:05PM 36.9864 -110.5567 57° Northeast 445 512 37,000  Level Denver Center
08:06PM 37.0686 -110.4000 57° Northeast 448 516 37,000  Level Denver Center
08:07PM 37.1353 -110.2697 57° Northeast 449 517 37,000  Level Denver Center
08:08PM 37.2006 -110.1411 57° Northeast 448 516 37,000  Level Denver Center
08:09PM 37.2756 -109.9936 57° Northeast 448 516 37,000  Level Denver Center
08:10PM 37.3403 -109.8656 58° Northeast 451 519 37,000  Level Denver Center
08:11PM 37.4156 -109.7178 57° Northeast 450 518 37,000  Level Denver Center
08:12PM 37.4800 -109.5894 58° Northeast 452 520 37,000  Level Denver Center
08:13PM 37.5431 -109.4619 58° Northeast 448 516 37,000  Level Denver Center
08:14PM 37.6183 -109.3119 58° Northeast 451 519 37,000  Level Denver Center
08:15PM 37.6836 -109.1825 57° Northeast 455 524 37,000  Level Denver Center
08:17PM 37.7583 -109.0308 58° Northeast 454 522 37,000  Level Denver Center
08:18PM 37.8225 -108.8997 58° Northeast 457 526 37,000  Level Denver Center
08:19PM 37.8972 -108.7486 58° Northeast 454 522 37,000  Level Denver Center
08:20PM 37.9614 -108.6178 58° Northeast 456 525 37,000  Level Denver Center
08:21PM 38.0256 -108.4869 58° Northeast 456 525 37,000  Level Denver Center
08:22PM 38.0967 -108.3386 59° Northeast 457 526 37,000  Level Denver Center
08:23PM 38.1714 -108.1825 59° Northeast 460 529 37,000  Level Denver Center
08:24PM 38.2333 -108.0522 59° Northeast 454 522 37,000  Level Denver Center
08:25PM 38.3075 -107.9000 58° Northeast 453 521 37,000  Level Denver Center
08:26PM 38.3697 -107.7689 59° Northeast 454 522 37,000 -360 Level Denver Center
08:27PM 38.4333 -107.6350 59° Northeast 458 527 36,300 -780 Descending Denver Center
08:28PM 38.5039 -107.4794 60° Northeast 457 526 35,500 -900 Descending Denver Center
08:29PM 38.5658 -107.3417 60° Northeast 464 534 34,500 -1,020 Descending Denver Center
08:30PM 38.6381 -107.1797 60° Northeast 468 539 33,400 -780 Descending Denver Center
08:31PM 38.7033 -107.0336 60° Northeast 472 543 33,000 -240 Descending Denver Center
08:32PM 38.7678 -106.8858 61° Northeast 477 549 33,000  Level Denver Center
08:33PM 38.8339 -106.7378 60° Northeast 481 554 33,000 -120 Level Denver Center
08:34PM 38.9089 -106.5703 60° Northeast 474 545 32,800 -900 Descending Denver Center
08:35PM 38.9744 -106.4292 59° Northeast 479 551 31,200 -1,500 Descending Denver Center
08:36PM 39.0389 -106.2867 60° Northeast 482 555 29,800 -1,920 Descending Denver Center
08:37PM 39.1061 -106.1356 60° Northeast 473 544 27,300 -2,400 Descending Denver Center
08:38PM 39.1694 -105.9925 60° Northeast 460 529 24,900 -2,460 Descending Denver Center
08:39PM 39.2394 -105.8322 61° Northeast 436 502 22,300 -2,400 Descending Denver Center
08:40PM 39.2989 -105.7014 60° Northeast 423 487 20,100 -1,860 Descending Denver Center
08:41PM 39.3522 -105.5781 61° Northeast 396 456 18,600 -1,140 Descending Denver Center
08:42PM 39.3981 -105.4669 62° Northeast 357 411 17,800 -1,080 Descending Denver Center
08:43PM 39.4017 -105.3483 88° East 329 379 16,400 -1,380 Descending Denver Center
08:44PM 39.4078 -105.2217 86° East 331 381 15,000 -1,320 Descending Denver Center
08:45PM 39.4119 -105.1053 87° East 325 374 13,800 -840 Descending Denver Center
08:46PM 39.4269 -104.9878 81° East 310 357 13,300 -600 Descending Denver Center
08:47PM 39.4511 -104.8956 71° East 268 308 12,600 -600 Descending Denver Center
08:48PM 39.4928 -104.8197 55° Northeast 256 295 12,100 -600 Descending Denver Center
08:49PM 39.5497 -104.7564 41° Northeast 256 295 11,400 -1,140 Descending Denver Center
08:50PM 39.6081 -104.7100 31° Northeast 248 285 9,800 -1,560 Descending Denver Center